Sponsor www.jackysshop.nl


METAR rapporten vliegvelden

   
EBAW - Antwerp
Gewijzigd: 10-12-2018 00:50
Gedeeltelijk bewolkt  
Gedeeltelijk bewolkt  
   Wind: NNW 13 km/h
Wind: NNW 13 km/h
Temperatuur: 7°C
Voelt als: 4°C
Dauwpunt: 2°C
Vochtigheid: 71%
Barometer: 1019 hPa
Bewolking: Gedeeltelijk bewolkt
Zicht: meer dan 10 km
Bewolking: Gedeeltelijk bewolkt 2500 ft,
Gedeeltelijk bewolkt 3700 ft
EBAW 092350Z AUTO 33007KT 9999 // SCT025/// SCT037/// 07/02 Q1019
EBLG - Li├Ęge
Gewijzigd: 10-12-2018 00:50
Grotendeels bewolkt  
Grotendeels bewolkt  
   Wind: Westen 16.7 km/h
Wind: Westen 16.7 km/h
Temperatuur: 5°C
Voelt als: 2°C
Dauwpunt: 3°C
Vochtigheid: 87%
Barometer: 1018 hPa
Bewolking: Grotendeels bewolkt
Zicht: meer dan 10 km
Bewolking: Licht bewolkt 600 ft,
Gedeeltelijk bewolkt 1800 ft,
Grotendeels bewolkt 4600 ft
EBLG 092350Z 27009KT 9999 FEW006 SCT018 BKN046 05/03 Q1018 TEMPO 30015G25KT SHRA
EBCV - Mons/Bergen
Gewijzigd: 10-12-2018 00:55
Gedeeltelijk bewolkt  
Gedeeltelijk bewolkt  
   Wind: Westen 14.8 km/h
Wind: Westen 14.8 km/h
Temperatuur: 6°C
Voelt als: 3°C
Dauwpunt: 4°C
Vochtigheid: 87%
Bewolking: Gedeeltelijk bewolkt
Zicht: meer dan 10 km
Bewolking: Licht bewolkt 2800 ft,
Gedeeltelijk bewolkt 4400 ft
EBCV 092355Z AUTO 27008KT 9999 FEW028/// SCT044/// 06/04
EHBK - Maastricht
Gewijzigd: 10-12-2018 00:55
Gedeeltelijk bewolkt  
Gedeeltelijk bewolkt  
   Wind: Westen 14.8 km/h
Wind: Westen 14.8 km/h
Temperatuur: 5°C
Voelt als: 2°C
Dauwpunt: 3°C
Vochtigheid: 87%
Barometer: 1017 hPa
Bewolking: Gedeeltelijk bewolkt
Zicht: meer dan 10 km
Bewolking: Gedeeltelijk bewolkt
EHBK 092355Z AUTO 27008KT 230V310 9999 NSC 05/03 Q1017
ELLX - Luxemburg
Gewijzigd: 10-12-2018 00:50
Licht bewolkt  
Licht bewolkt  
   Wind: Westen 18.5 km/h
Wind: Westen 18.5 km/h
Temperatuur: 4°C
Voelt als: 0°C
Dauwpunt: 2°C
Vochtigheid: 87%
Barometer: 1018 hPa
Bewolking: Licht bewolkt
Zicht: meer dan 10 km
Bewolking: Licht bewolkt 3500 ft
ELLX 092350Z 27010KT 9999 FEW035 04/02 Q1018 NOSIG
EBOS - Oostende
Gewijzigd: 10-12-2018 00:50
Gedeeltelijk bewolkt  
Gedeeltelijk bewolkt  
   Wind: NW 31.5 km/h
Wind: NW 31.5 km/h
Temperatuur: 8°C
Voelt als: 4°C
Dauwpunt: 3°C
Vochtigheid: 71%
Barometer: 1020 hPa
Bewolking: Gedeeltelijk bewolkt
Zicht: meer dan 10 km
Bewolking: Gedeeltelijk bewolkt 2500 ft,
Gedeeltelijk bewolkt 4500 ft
EBOS 092350Z 31017KT 9999 SCT025 SCT045 08/03 Q1020 NOSIG

Script ontwikkeld door  Saratoga-weather.org Aangepast voor de template door  Weerstation Leuven